sensor_id;sensor_type;location;lat;lon;timestamp;P1;durP1;ratioP1;P2;durP2;ratioP2
10467;SDS011;5281;48.878;9.394;2023-12-20T00:01:11;1.93;;;1.33;;
10467;SDS011;5281;48.878;9.394;2023-12-20T00:03:38;1.50;;;1.10;;
10467;SDS011;5281;48.878;9.394;2023-12-20T00:06:05;1.87;;;1.33;;
10467;SDS011;5281;48.878;9.394;2023-12-20T00:08:31;1.93;;;1.50;;
10467;SDS011;5281;48.878;9.394;2023-12-20T00:10:58;1.67;;;1.20;;
10467;SDS011;5281;48.878;9.394;2023-12-20T00:13:24;1.43;;;1.30;;
10467;SDS011;5281;48.878;9.394;2023-12-20T00:15:52;1.57;;;1.30;;
10467;SDS011;5281;48.878;9.394;2023-12-20T00:18:19;1.70;;;1.40;;
10467;SDS011;5281;48.878;9.394;2023-12-20T00:20:46;1.60;;;1.47;;
10467;SDS011;5281;48.878;9.394;2023-12-20T00:23:12;1.60;;;1.40;;
10467;SDS011;5281;48.878;9.394;2023-12-20T00:25:39;1.73;;;1.30;;
10467;SDS011;5281;48.878;9.394;2023-12-20T00:28:05;1.67;;;1.27;;
10467;SDS011;5281;48.878;9.394;2023-12-20T00:30:32;1.80;;;1.40;;
10467;SDS011;5281;48.878;9.394;2023-12-20T00:33:00;2.03;;;1.20;;
10467;SDS011;5281;48.878;9.394;2023-12-20T00:35:27;2.10;;;1.40;;
10467;SDS011;5281;48.878;9.394;2023-12-20T00:37:54;1.40;;;1.30;;
10467;SDS011;5281;48.878;9.394;2023-12-20T00:40:21;1.57;;;1.17;;
10467;SDS011;5281;48.878;9.394;2023-12-20T00:42:48;1.43;;;1.27;;
10467;SDS011;5281;48.878;9.394;2023-12-20T00:45:14;1.17;;;0.97;;
10467;SDS011;5281;48.878;9.394;2023-12-20T00:47:41;2.10;;;1.10;;
10467;SDS011;5281;48.878;9.394;2023-12-20T00:50:09;1.20;;;1.00;;
10467;SDS011;5281;48.878;9.394;2023-12-20T00:52:36;1.93;;;1.17;;
10467;SDS011;5281;48.878;9.394;2023-12-20T00:55:03;1.43;;;0.90;;
10467;SDS011;5281;48.878;9.394;2023-12-20T00:57:30;1.27;;;1.00;;
10467;SDS011;5281;48.878;9.394;2023-12-20T00:59:57;2.30;;;1.40;;
10467;SDS011;5281;48.878;9.394;2023-12-20T01:02:24;2.70;;;1.10;;
10467;SDS011;5281;48.878;9.394;2023-12-20T01:04:50;1.63;;;1.20;;
10467;SDS011;5281;48.878;9.394;2023-12-20T01:07:18;1.40;;;1.00;;
10467;SDS011;5281;48.878;9.394;2023-12-20T01:09:46;5.57;;;1.23;;
10467;SDS011;5281;48.878;9.394;2023-12-20T01:12:13;4.10;;;1.40;;
10467;SDS011;5281;48.878;9.394;2023-12-20T01:14:39;2.40;;;1.17;;
10467;SDS011;5281;48.878;9.394;2023-12-20T01:17:06;3.17;;;1.30;;
10467;SDS011;5281;48.878;9.394;2023-12-20T01:19:32;2.13;;;1.03;;
10467;SDS011;5281;48.878;9.394;2023-12-20T01:21:59;2.60;;;1.43;;
10467;SDS011;5281;48.878;9.394;2023-12-20T01:24:27;1.37;;;1.27;;
10467;SDS011;5281;48.878;9.394;2023-12-20T01:26:54;1.60;;;1.50;;
10467;SDS011;5281;48.878;9.394;2023-12-20T01:29:21;2.80;;;1.30;;
10467;SDS011;5281;48.878;9.394;2023-12-20T01:31:47;1.57;;;1.37;;
10467;SDS011;5281;48.878;9.394;2023-12-20T01:34:14;2.40;;;1.40;;
10467;SDS011;5281;48.878;9.394;2023-12-20T01:36:41;2.13;;;1.53;;
10467;SDS011;5281;48.878;9.394;2023-12-20T01:39:07;1.90;;;1.50;;
10467;SDS011;5281;48.878;9.394;2023-12-20T01:41:35;2.83;;;1.70;;
10467;SDS011;5281;48.878;9.394;2023-12-20T01:44:02;1.83;;;1.60;;
10467;SDS011;5281;48.878;9.394;2023-12-20T01:46:29;2.07;;;1.60;;
10467;SDS011;5281;48.878;9.394;2023-12-20T01:48:56;3.37;;;1.80;;
10467;SDS011;5281;48.878;9.394;2023-12-20T01:51:23;2.13;;;1.40;;
10467;SDS011;5281;48.878;9.394;2023-12-20T01:53:52;1.90;;;1.60;;
10467;SDS011;5281;48.878;9.394;2023-12-20T01:56:20;2.00;;;1.80;;
10467;SDS011;5281;48.878;9.394;2023-12-20T01:58:48;2.37;;;1.50;;
10467;SDS011;5281;48.878;9.394;2023-12-20T02:01:15;1.83;;;1.60;;
10467;SDS011;5281;48.878;9.394;2023-12-20T02:03:42;2.20;;;1.77;;
10467;SDS011;5281;48.878;9.394;2023-12-20T02:06:09;2.33;;;1.80;;
10467;SDS011;5281;48.878;9.394;2023-12-20T02:08:37;2.03;;;1.70;;
10467;SDS011;5281;48.878;9.394;2023-12-20T02:11:03;2.10;;;1.90;;
10467;SDS011;5281;48.878;9.394;2023-12-20T02:13:30;2.33;;;1.83;;
10467;SDS011;5281;48.878;9.394;2023-12-20T02:15:58;2.30;;;1.90;;
10467;SDS011;5281;48.878;9.394;2023-12-20T02:18:26;3.20;;;2.20;;
10467;SDS011;5281;48.878;9.394;2023-12-20T02:20:53;2.23;;;1.93;;
10467;SDS011;5281;48.878;9.394;2023-12-20T02:23:22;2.90;;;2.23;;
10467;SDS011;5281;48.878;9.394;2023-12-20T02:25:48;4.13;;;2.37;;
10467;SDS011;5281;48.878;9.394;2023-12-20T02:28:15;2.97;;;2.20;;
10467;SDS011;5281;48.878;9.394;2023-12-20T02:30:42;2.57;;;2.20;;
10467;SDS011;5281;48.878;9.394;2023-12-20T02:33:10;3.10;;;2.63;;
10467;SDS011;5281;48.878;9.394;2023-12-20T02:35:40;3.60;;;2.57;;
10467;SDS011;5281;48.878;9.394;2023-12-20T02:38:06;2.80;;;2.20;;
10467;SDS011;5281;48.878;9.394;2023-12-20T02:40:34;4.67;;;2.47;;
10467;SDS011;5281;48.878;9.394;2023-12-20T02:43:01;3.13;;;2.40;;
10467;SDS011;5281;48.878;9.394;2023-12-20T02:45:28;2.83;;;2.50;;
10467;SDS011;5281;48.878;9.394;2023-12-20T02:47:55;3.07;;;2.73;;
10467;SDS011;5281;48.878;9.394;2023-12-20T02:50:22;2.87;;;2.57;;
10467;SDS011;5281;48.878;9.394;2023-12-20T02:52:48;4.07;;;2.93;;
10467;SDS011;5281;48.878;9.394;2023-12-20T02:55:15;3.03;;;2.73;;
10467;SDS011;5281;48.878;9.394;2023-12-20T02:57:43;3.10;;;2.53;;
10467;SDS011;5281;48.878;9.394;2023-12-20T03:00:10;2.73;;;2.50;;
10467;SDS011;5281;48.878;9.394;2023-12-20T03:02:37;3.37;;;3.00;;
10467;SDS011;5281;48.878;9.394;2023-12-20T03:05:04;3.70;;;3.20;;
10467;SDS011;5281;48.878;9.394;2023-12-20T03:07:31;3.07;;;2.77;;
10467;SDS011;5281;48.878;9.394;2023-12-20T03:09:58;2.63;;;2.40;;
10467;SDS011;5281;48.878;9.394;2023-12-20T03:12:24;2.87;;;2.27;;
10467;SDS011;5281;48.878;9.394;2023-12-20T03:14:52;2.50;;;2.10;;
10467;SDS011;5281;48.878;9.394;2023-12-20T03:17:18;2.30;;;2.10;;
10467;SDS011;5281;48.878;9.394;2023-12-20T03:19:45;1.77;;;1.60;;
10467;SDS011;5281;48.878;9.394;2023-12-20T03:22:12;2.57;;;1.90;;
10467;SDS011;5281;48.878;9.394;2023-12-20T03:24:39;2.23;;;2.00;;
10467;SDS011;5281;48.878;9.394;2023-12-20T03:27:05;2.30;;;1.80;;
10467;SDS011;5281;48.878;9.394;2023-12-20T03:29:32;1.70;;;1.60;;
10467;SDS011;5281;48.878;9.394;2023-12-20T03:32:00;2.50;;;1.50;;
10467;SDS011;5281;48.878;9.394;2023-12-20T03:34:27;2.17;;;1.27;;
10467;SDS011;5281;48.878;9.394;2023-12-20T03:36:54;1.50;;;0.97;;
10467;SDS011;5281;48.878;9.394;2023-12-20T03:39:20;1.43;;;1.10;;
10467;SDS011;5281;48.878;9.394;2023-12-20T03:41:47;0.90;;;0.70;;
10467;SDS011;5281;48.878;9.394;2023-12-20T03:44:14;0.60;;;0.60;;
10467;SDS011;5281;48.878;9.394;2023-12-20T03:46:40;1.13;;;0.50;;
10467;SDS011;5281;48.878;9.394;2023-12-20T03:49:08;0.63;;;0.43;;
10467;SDS011;5281;48.878;9.394;2023-12-20T03:51:35;0.40;;;0.40;;
10467;SDS011;5281;48.878;9.394;2023-12-20T03:54:02;0.30;;;0.30;;
10467;SDS011;5281;48.878;9.394;2023-12-20T03:56:29;0.60;;;0.43;;
10467;SDS011;5281;48.878;9.394;2023-12-20T03:58:55;0.47;;;0.40;;
10467;SDS011;5281;48.878;9.394;2023-12-20T04:01:23;0.40;;;0.40;;
10467;SDS011;5281;48.878;9.394;2023-12-20T04:03:50;0.40;;;0.33;;
10467;SDS011;5281;48.878;9.394;2023-12-20T04:06:18;0.40;;;0.40;;
10467;SDS011;5281;48.878;9.394;2023-12-20T04:08:45;0.30;;;0.20;;
10467;SDS011;5281;48.878;9.394;2023-12-20T04:11:12;0.30;;;0.30;;
10467;SDS011;5281;48.878;9.394;2023-12-20T04:13:38;0.60;;;0.50;;
10467;SDS011;5281;48.878;9.394;2023-12-20T04:16:05;6.33;;;5.20;;
10467;SDS011;5281;48.878;9.394;2023-12-20T04:18:32;0.73;;;0.40;;
10467;SDS011;5281;48.878;9.394;2023-12-20T04:20:59;0.47;;;0.33;;
10467;SDS011;5281;48.878;9.394;2023-12-20T04:23:27;0.40;;;0.40;;
10467;SDS011;5281;48.878;9.394;2023-12-20T04:25:54;0.30;;;0.30;;
10467;SDS011;5281;48.878;9.394;2023-12-20T04:28:21;0.80;;;0.30;;
10467;SDS011;5281;48.878;9.394;2023-12-20T04:30:47;0.67;;;0.50;;
10467;SDS011;5281;48.878;9.394;2023-12-20T04:33:14;1.53;;;0.40;;
10467;SDS011;5281;48.878;9.394;2023-12-20T04:35:41;0.40;;;0.40;;
10467;SDS011;5281;48.878;9.394;2023-12-20T04:38:08;0.67;;;0.50;;
10467;SDS011;5281;48.878;9.394;2023-12-20T04:40:36;2.00;;;0.40;;
10467;SDS011;5281;48.878;9.394;2023-12-20T04:43:03;2.50;;;0.60;;
10467;SDS011;5281;48.878;9.394;2023-12-20T04:45:30;1.90;;;0.50;;
10467;SDS011;5281;48.878;9.394;2023-12-20T04:47:57;0.30;;;0.30;;
10467;SDS011;5281;48.878;9.394;2023-12-20T04:50:23;0.33;;;0.33;;
10467;SDS011;5281;48.878;9.394;2023-12-20T04:52:51;0.47;;;0.47;;
10467;SDS011;5281;48.878;9.394;2023-12-20T04:55:18;0.40;;;0.30;;
10467;SDS011;5281;48.878;9.394;2023-12-20T04:57:46;1.17;;;0.40;;
10467;SDS011;5281;48.878;9.394;2023-12-20T05:00:13;0.87;;;0.60;;
10467;SDS011;5281;48.878;9.394;2023-12-20T05:02:40;0.30;;;0.30;;
10467;SDS011;5281;48.878;9.394;2023-12-20T05:05:07;0.93;;;0.30;;
10467;SDS011;5281;48.878;9.394;2023-12-20T05:07:34;2.73;;;1.20;;
10467;SDS011;5281;48.878;9.394;2023-12-20T05:10:01;0.47;;;0.20;;
10467;SDS011;5281;48.878;9.394;2023-12-20T05:12:29;2.40;;;0.90;;
10467;SDS011;5281;48.878;9.394;2023-12-20T05:14:57;0.53;;;0.30;;
10467;SDS011;5281;48.878;9.394;2023-12-20T05:17:24;0.53;;;0.50;;
10467;SDS011;5281;48.878;9.394;2023-12-20T05:19:51;0.60;;;0.50;;
10467;SDS011;5281;48.878;9.394;2023-12-20T05:22:17;0.40;;;0.40;;
10467;SDS011;5281;48.878;9.394;2023-12-20T05:24:45;0.30;;;0.30;;
10467;SDS011;5281;48.878;9.394;2023-12-20T05:27:11;0.20;;;0.20;;
10467;SDS011;5281;48.878;9.394;2023-12-20T05:29:38;1.50;;;0.37;;
10467;SDS011;5281;48.878;9.394;2023-12-20T05:32:06;0.43;;;0.33;;
10467;SDS011;5281;48.878;9.394;2023-12-20T05:34:33;0.90;;;0.63;;
10467;SDS011;5281;48.878;9.394;2023-12-20T05:37:00;0.30;;;0.30;;
10467;SDS011;5281;48.878;9.394;2023-12-20T05:39:27;0.73;;;0.50;;
10467;SDS011;5281;48.878;9.394;2023-12-20T05:41:55;0.40;;;0.40;;
10467;SDS011;5281;48.878;9.394;2023-12-20T05:44:22;1.10;;;0.53;;
10467;SDS011;5281;48.878;9.394;2023-12-20T05:46:49;0.93;;;0.53;;
10467;SDS011;5281;48.878;9.394;2023-12-20T05:49:17;1.33;;;0.73;;
10467;SDS011;5281;48.878;9.394;2023-12-20T05:51:44;1.57;;;0.57;;
10467;SDS011;5281;48.878;9.394;2023-12-20T05:54:10;1.77;;;0.80;;
10467;SDS011;5281;48.878;9.394;2023-12-20T05:56:37;1.60;;;0.60;;
10467;SDS011;5281;48.878;9.394;2023-12-20T05:59:04;1.43;;;0.73;;
10467;SDS011;5281;48.878;9.394;2023-12-20T06:01:30;2.53;;;1.40;;
10467;SDS011;5281;48.878;9.394;2023-12-20T06:03:57;1.13;;;0.73;;
10467;SDS011;5281;48.878;9.394;2023-12-20T06:06:25;1.13;;;0.83;;
10467;SDS011;5281;48.878;9.394;2023-12-20T06:08:52;0.80;;;0.63;;
10467;SDS011;5281;48.878;9.394;2023-12-20T06:11:18;1.63;;;0.70;;
10467;SDS011;5281;48.878;9.394;2023-12-20T06:13:45;2.10;;;1.03;;
10467;SDS011;5281;48.878;9.394;2023-12-20T06:16:12;2.37;;;1.43;;
10467;SDS011;5281;48.878;9.394;2023-12-20T06:18:39;4.20;;;1.37;;
10467;SDS011;5281;48.878;9.394;2023-12-20T06:21:06;1.83;;;1.10;;
10467;SDS011;5281;48.878;9.394;2023-12-20T06:23:34;4.23;;;1.60;;
10467;SDS011;5281;48.878;9.394;2023-12-20T06:26:01;2.87;;;1.00;;
10467;SDS011;5281;48.878;9.394;2023-12-20T06:28:28;1.70;;;1.13;;
10467;SDS011;5281;48.878;9.394;2023-12-20T06:30:54;1.37;;;1.17;;
10467;SDS011;5281;48.878;9.394;2023-12-20T06:33:22;2.20;;;1.60;;
10467;SDS011;5281;48.878;9.394;2023-12-20T06:35:49;1.73;;;1.43;;
10467;SDS011;5281;48.878;9.394;2023-12-20T06:38:17;1.70;;;1.40;;
10467;SDS011;5281;48.878;9.394;2023-12-20T06:40:45;2.27;;;1.77;;
10467;SDS011;5281;48.878;9.394;2023-12-20T06:43:12;2.33;;;1.40;;
10467;SDS011;5281;48.878;9.394;2023-12-20T06:45:39;2.40;;;1.47;;
10467;SDS011;5281;48.878;9.394;2023-12-20T06:48:06;3.97;;;1.67;;
10467;SDS011;5281;48.878;9.394;2023-12-20T06:50:33;3.30;;;1.63;;
10467;SDS011;5281;48.878;9.394;2023-12-20T06:52:59;2.17;;;1.47;;
10467;SDS011;5281;48.878;9.394;2023-12-20T06:55:31;3.50;;;1.50;;
10467;SDS011;5281;48.878;9.394;2023-12-20T06:58:00;3.27;;;1.47;;
10467;SDS011;5281;48.878;9.394;2023-12-20T07:00:27;4.33;;;1.70;;
10467;SDS011;5281;48.878;9.394;2023-12-20T07:02:54;1.83;;;1.50;;
10467;SDS011;5281;48.878;9.394;2023-12-20T07:05:20;2.63;;;1.30;;
10467;SDS011;5281;48.878;9.394;2023-12-20T07:07:47;1.27;;;1.17;;
10467;SDS011;5281;48.878;9.394;2023-12-20T07:10:14;3.37;;;1.57;;
10467;SDS011;5281;48.878;9.394;2023-12-20T07:12:40;2.30;;;1.77;;
10467;SDS011;5281;48.878;9.394;2023-12-20T07:15:09;2.10;;;1.47;;
10467;SDS011;5281;48.878;9.394;2023-12-20T07:17:36;2.87;;;2.53;;
10467;SDS011;5281;48.878;9.394;2023-12-20T07:20:03;2.43;;;1.63;;
10467;SDS011;5281;48.878;9.394;2023-12-20T07:22:34;2.90;;;2.20;;
10467;SDS011;5281;48.878;9.394;2023-12-20T07:25:01;3.50;;;2.10;;
10467;SDS011;5281;48.878;9.394;2023-12-20T07:27:28;1.97;;;1.70;;
10467;SDS011;5281;48.878;9.394;2023-12-20T07:29:55;3.50;;;1.90;;
10467;SDS011;5281;48.878;9.394;2023-12-20T07:32:23;2.23;;;2.03;;
10467;SDS011;5281;48.878;9.394;2023-12-20T07:34:50;2.20;;;2.00;;
10467;SDS011;5281;48.878;9.394;2023-12-20T07:37:16;2.50;;;2.30;;
10467;SDS011;5281;48.878;9.394;2023-12-20T07:39:43;2.60;;;2.13;;
10467;SDS011;5281;48.878;9.394;2023-12-20T07:42:10;2.50;;;2.30;;
10467;SDS011;5281;48.878;9.394;2023-12-20T07:44:36;3.03;;;2.77;;
10467;SDS011;5281;48.878;9.394;2023-12-20T07:47:03;2.50;;;2.30;;
10467;SDS011;5281;48.878;9.394;2023-12-20T07:49:32;2.43;;;2.23;;
10467;SDS011;5281;48.878;9.394;2023-12-20T07:51:58;2.87;;;2.53;;
10467;SDS011;5281;48.878;9.394;2023-12-20T07:54:25;2.53;;;2.33;;
10467;SDS011;5281;48.878;9.394;2023-12-20T07:56:52;2.60;;;2.40;;
10467;SDS011;5281;48.878;9.394;2023-12-20T07:59:18;2.70;;;2.40;;
10467;SDS011;5281;48.878;9.394;2023-12-20T08:01:45;2.60;;;2.40;;
10467;SDS011;5281;48.878;9.394;2023-12-20T08:04:12;2.60;;;2.40;;
10467;SDS011;5281;48.878;9.394;2023-12-20T08:06:40;2.20;;;2.00;;
10467;SDS011;5281;48.878;9.394;2023-12-20T08:09:06;2.30;;;2.10;;
10467;SDS011;5281;48.878;9.394;2023-12-20T08:11:33;3.20;;;2.73;;
10467;SDS011;5281;48.878;9.394;2023-12-20T08:14:00;3.07;;;2.27;;
10467;SDS011;5281;48.878;9.394;2023-12-20T08:16:26;2.40;;;2.20;;
10467;SDS011;5281;48.878;9.394;2023-12-20T08:18:53;2.20;;;2.00;;
10467;SDS011;5281;48.878;9.394;2023-12-20T08:21:20;9.13;;;6.97;;
10467;SDS011;5281;48.878;9.394;2023-12-20T08:23:49;2.80;;;2.10;;
10467;SDS011;5281;48.878;9.394;2023-12-20T08:26:18;2.33;;;2.00;;
10467;SDS011;5281;48.878;9.394;2023-12-20T08:28:47;2.17;;;2.03;;
10467;SDS011;5281;48.878;9.394;2023-12-20T08:31:14;2.97;;;1.93;;
10467;SDS011;5281;48.878;9.394;2023-12-20T08:33:41;4.10;;;2.60;;
10467;SDS011;5281;48.878;9.394;2023-12-20T08:36:09;2.37;;;2.10;;
10467;SDS011;5281;48.878;9.394;2023-12-20T08:38:36;2.07;;;1.80;;
10467;SDS011;5281;48.878;9.394;2023-12-20T08:41:04;3.73;;;3.33;;
10467;SDS011;5281;48.878;9.394;2023-12-20T08:43:31;3.10;;;2.30;;
10467;SDS011;5281;48.878;9.394;2023-12-20T08:45:58;2.97;;;2.40;;
10467;SDS011;5281;48.878;9.394;2023-12-20T08:48:24;4.53;;;3.17;;
10467;SDS011;5281;48.878;9.394;2023-12-20T08:50:51;5.43;;;2.57;;
10467;SDS011;5281;48.878;9.394;2023-12-20T08:53:18;3.47;;;2.67;;
10467;SDS011;5281;48.878;9.394;2023-12-20T08:55:44;3.10;;;2.33;;
10467;SDS011;5281;48.878;9.394;2023-12-20T08:58:13;5.37;;;3.00;;
10467;SDS011;5281;48.878;9.394;2023-12-20T09:00:39;3.30;;;2.57;;
10467;SDS011;5281;48.878;9.394;2023-12-20T09:03:06;6.20;;;2.43;;
10467;SDS011;5281;48.878;9.394;2023-12-20T09:05:33;3.27;;;2.20;;
10467;SDS011;5281;48.878;9.394;2023-12-20T09:08:00;2.63;;;2.17;;
10467;SDS011;5281;48.878;9.394;2023-12-20T09:10:26;3.57;;;2.40;;
10467;SDS011;5281;48.878;9.394;2023-12-20T09:12:53;5.10;;;2.53;;
10467;SDS011;5281;48.878;9.394;2023-12-20T09:15:23;4.63;;;2.77;;
10467;SDS011;5281;48.878;9.394;2023-12-20T09:17:50;4.07;;;2.37;;
10467;SDS011;5281;48.878;9.394;2023-12-20T09:20:16;6.20;;;2.40;;
10467;SDS011;5281;48.878;9.394;2023-12-20T09:22:43;3.10;;;2.50;;
10467;SDS011;5281;48.878;9.394;2023-12-20T09:25:10;6.77;;;2.83;;
10467;SDS011;5281;48.878;9.394;2023-12-20T09:27:37;3.93;;;2.03;;
10467;SDS011;5281;48.878;9.394;2023-12-20T09:30:04;2.77;;;2.10;;
10467;SDS011;5281;48.878;9.394;2023-12-20T09:32:33;3.97;;;2.60;;
10467;SDS011;5281;48.878;9.394;2023-12-20T09:35:00;4.37;;;2.40;;
10467;SDS011;5281;48.878;9.394;2023-12-20T09:37:27;4.27;;;2.40;;
10467;SDS011;5281;48.878;9.394;2023-12-20T09:39:54;4.63;;;2.20;;
10467;SDS011;5281;48.878;9.394;2023-12-20T09:42:21;4.90;;;2.33;;
10467;SDS011;5281;48.878;9.394;2023-12-20T09:44:55;3.40;;;2.43;;
10467;SDS011;5281;48.878;9.394;2023-12-20T09:47:26;3.27;;;2.27;;
10467;SDS011;5281;48.878;9.394;2023-12-20T09:49:54;4.40;;;2.30;;
10467;SDS011;5281;48.878;9.394;2023-12-20T09:52:22;3.97;;;2.13;;
10467;SDS011;5281;48.878;9.394;2023-12-20T09:54:50;3.43;;;2.10;;
10467;SDS011;5281;48.878;9.394;2023-12-20T09:57:20;4.40;;;2.10;;
10467;SDS011;5281;48.878;9.394;2023-12-20T09:59:46;2.93;;;1.90;;
10467;SDS011;5281;48.878;9.394;2023-12-20T10:02:13;5.70;;;2.20;;
10467;SDS011;5281;48.878;9.394;2023-12-20T10:04:41;4.13;;;2.20;;
10467;SDS011;5281;48.878;9.394;2023-12-20T10:07:14;3.43;;;2.20;;
10467;SDS011;5281;48.878;9.394;2023-12-20T10:09:41;5.27;;;1.70;;
10467;SDS011;5281;48.878;9.394;2023-12-20T10:12:08;3.90;;;2.03;;
10467;SDS011;5281;48.878;9.394;2023-12-20T10:14:35;6.90;;;1.57;;
10467;SDS011;5281;48.878;9.394;2023-12-20T10:17:05;8.90;;;1.70;;
10467;SDS011;5281;48.878;9.394;2023-12-20T10:19:32;4.97;;;1.80;;
10467;SDS011;5281;48.878;9.394;2023-12-20T10:21:59;4.00;;;1.50;;
10467;SDS011;5281;48.878;9.394;2023-12-20T10:24:29;5.13;;;2.27;;
10467;SDS011;5281;48.878;9.394;2023-12-20T10:27:02;6.20;;;1.70;;
10467;SDS011;5281;48.878;9.394;2023-12-20T10:29:31;4.90;;;1.60;;
10467;SDS011;5281;48.878;9.394;2023-12-20T10:31:58;4.47;;;1.47;;
10467;SDS011;5281;48.878;9.394;2023-12-20T10:34:25;4.70;;;1.30;;
10467;SDS011;5281;48.878;9.394;2023-12-20T10:36:52;4.47;;;1.40;;
10467;SDS011;5281;48.878;9.394;2023-12-20T10:39:19;3.87;;;1.33;;
10467;SDS011;5281;48.878;9.394;2023-12-20T10:41:48;2.77;;;1.17;;
10467;SDS011;5281;48.878;9.394;2023-12-20T10:44:15;3.43;;;1.27;;
10467;SDS011;5281;48.878;9.394;2023-12-20T10:46:42;3.67;;;1.20;;
10467;SDS011;5281;48.878;9.394;2023-12-20T10:49:16;3.27;;;1.27;;
10467;SDS011;5281;48.878;9.394;2023-12-20T10:51:45;3.87;;;1.40;;
10467;SDS011;5281;48.878;9.394;2023-12-20T10:54:13;9.83;;;2.70;;
10467;SDS011;5281;48.878;9.394;2023-12-20T10:56:40;4.67;;;1.57;;
10467;SDS011;5281;48.878;9.394;2023-12-20T10:59:08;3.83;;;1.33;;
10467;SDS011;5281;48.878;9.394;2023-12-20T11:01:37;7.40;;;2.03;;
10467;SDS011;5281;48.878;9.394;2023-12-20T11:04:06;9.77;;;1.73;;
10467;SDS011;5281;48.878;9.394;2023-12-20T11:06:43;3.57;;;1.47;;
10467;SDS011;5281;48.878;9.394;2023-12-20T11:09:16;5.13;;;1.63;;
10467;SDS011;5281;48.878;9.394;2023-12-20T11:11:55;6.87;;;1.50;;
10467;SDS011;5281;48.878;9.394;2023-12-20T11:14:31;5.87;;;1.60;;
10467;SDS011;5281;48.878;9.394;2023-12-20T11:19:36;4.23;;;1.57;;
10467;SDS011;5281;48.878;9.394;2023-12-20T11:22:09;6.47;;;1.97;;
10467;SDS011;5281;48.878;9.394;2023-12-20T11:24:38;4.93;;;2.00;;
10467;SDS011;5281;48.878;9.394;2023-12-20T11:27:12;6.03;;;3.17;;
10467;SDS011;5281;48.878;9.394;2023-12-20T11:29:40;4.63;;;1.50;;
10467;SDS011;5281;48.878;9.394;2023-12-20T11:34:55;4.00;;;1.20;;
10467;SDS011;5281;48.878;9.394;2023-12-20T11:37:25;4.03;;;1.33;;
10467;SDS011;5281;48.878;9.394;2023-12-20T11:39:55;5.73;;;1.40;;
10467;SDS011;5281;48.878;9.394;2023-12-20T11:42:26;4.70;;;1.20;;
10467;SDS011;5281;48.878;9.394;2023-12-20T11:44:55;3.53;;;1.27;;
10467;SDS011;5281;48.878;9.394;2023-12-20T11:47:22;2.17;;;0.93;;
10467;SDS011;5281;48.878;9.394;2023-12-20T11:49:49;7.23;;;1.60;;
10467;SDS011;5281;48.878;9.394;2023-12-20T11:52:16;5.13;;;1.63;;
10467;SDS011;5281;48.878;9.394;2023-12-20T11:54:42;6.43;;;2.10;;
10467;SDS011;5281;48.878;9.394;2023-12-20T11:57:08;8.27;;;2.10;;
10467;SDS011;5281;48.878;9.394;2023-12-20T11:59:36;4.50;;;2.00;;
10467;SDS011;5281;48.878;9.394;2023-12-20T12:02:04;3.87;;;1.40;;
10467;SDS011;5281;48.878;9.394;2023-12-20T12:04:30;6.23;;;1.77;;
10467;SDS011;5281;48.878;9.394;2023-12-20T12:06:57;4.33;;;1.57;;
10467;SDS011;5281;48.878;9.394;2023-12-20T12:09:24;3.77;;;1.57;;
10467;SDS011;5281;48.878;9.394;2023-12-20T12:11:50;6.83;;;1.33;;
10467;SDS011;5281;48.878;9.394;2023-12-20T12:14:17;4.97;;;1.50;;
10467;SDS011;5281;48.878;9.394;2023-12-20T12:16:45;6.00;;;1.63;;
10467;SDS011;5281;48.878;9.394;2023-12-20T12:19:21;5.27;;;1.73;;
10467;SDS011;5281;48.878;9.394;2023-12-20T12:21:48;4.20;;;1.57;;
10467;SDS011;5281;48.878;9.394;2023-12-20T12:24:15;7.90;;;1.40;;
10467;SDS011;5281;48.878;9.394;2023-12-20T12:26:49;7.83;;;1.80;;
10467;SDS011;5281;48.878;9.394;2023-12-20T12:29:16;5.47;;;1.50;;
10467;SDS011;5281;48.878;9.394;2023-12-20T12:31:43;6.80;;;1.97;;
10467;SDS011;5281;48.878;9.394;2023-12-20T12:34:10;6.43;;;1.83;;
10467;SDS011;5281;48.878;9.394;2023-12-20T12:36:38;7.77;;;2.00;;
10467;SDS011;5281;48.878;9.394;2023-12-20T12:39:06;6.13;;;2.00;;
10467;SDS011;5281;48.878;9.394;2023-12-20T12:41:32;4.97;;;1.80;;
10467;SDS011;5281;48.878;9.394;2023-12-20T12:43:59;4.13;;;2.00;;
10467;SDS011;5281;48.878;9.394;2023-12-20T12:46:26;8.70;;;1.67;;
10467;SDS011;5281;48.878;9.394;2023-12-20T12:48:53;4.23;;;2.00;;
10467;SDS011;5281;48.878;9.394;2023-12-20T12:51:19;5.63;;;1.60;;
10467;SDS011;5281;48.878;9.394;2023-12-20T12:53:47;5.57;;;1.70;;
10467;SDS011;5281;48.878;9.394;2023-12-20T12:56:14;3.97;;;1.37;;
10467;SDS011;5281;48.878;9.394;2023-12-20T12:58:42;7.53;;;2.30;;
10467;SDS011;5281;48.878;9.394;2023-12-20T13:01:08;4.03;;;1.70;;
10467;SDS011;5281;48.878;9.394;2023-12-20T13:03:35;5.20;;;1.80;;
10467;SDS011;5281;48.878;9.394;2023-12-20T13:06:02;6.63;;;2.20;;
10467;SDS011;5281;48.878;9.394;2023-12-20T13:08:30;3.67;;;1.50;;
10467;SDS011;5281;48.878;9.394;2023-12-20T13:11:00;4.50;;;1.80;;
10467;SDS011;5281;48.878;9.394;2023-12-20T13:13:29;5.50;;;1.67;;
10467;SDS011;5281;48.878;9.394;2023-12-20T13:15:55;6.07;;;1.50;;
10467;SDS011;5281;48.878;9.394;2023-12-20T13:18:22;3.30;;;1.70;;
10467;SDS011;5281;48.878;9.394;2023-12-20T13:20:50;5.13;;;1.57;;
10467;SDS011;5281;48.878;9.394;2023-12-20T13:23:16;6.67;;;3.30;;
10467;SDS011;5281;48.878;9.394;2023-12-20T13:25:44;4.30;;;1.47;;
10467;SDS011;5281;48.878;9.394;2023-12-20T13:28:13;3.30;;;1.60;;
10467;SDS011;5281;48.878;9.394;2023-12-20T13:30:39;4.60;;;2.37;;
10467;SDS011;5281;48.878;9.394;2023-12-20T13:33:06;5.20;;;1.33;;
10467;SDS011;5281;48.878;9.394;2023-12-20T13:35:33;5.70;;;1.53;;
10467;SDS011;5281;48.878;9.394;2023-12-20T13:38:00;4.70;;;1.70;;
10467;SDS011;5281;48.878;9.394;2023-12-20T13:40:27;5.20;;;1.53;;
10467;SDS011;5281;48.878;9.394;2023-12-20T13:42:54;5.97;;;1.17;;
10467;SDS011;5281;48.878;9.394;2023-12-20T13:45:22;3.70;;;1.70;;
10467;SDS011;5281;48.878;9.394;2023-12-20T13:47:50;7.53;;;1.87;;
10467;SDS011;5281;48.878;9.394;2023-12-20T13:50:17;5.50;;;2.47;;
10467;SDS011;5281;48.878;9.394;2023-12-20T13:52:43;3.00;;;1.37;;
10467;SDS011;5281;48.878;9.394;2023-12-20T13:55:11;5.00;;;1.40;;
10467;SDS011;5281;48.878;9.394;2023-12-20T13:57:38;4.53;;;1.50;;
10467;SDS011;5281;48.878;9.394;2023-12-20T14:00:06;8.07;;;1.60;;
10467;SDS011;5281;48.878;9.394;2023-12-20T14:02:41;6.57;;;1.40;;
10467;SDS011;5281;48.878;9.394;2023-12-20T14:05:08;5.10;;;1.67;;
10467;SDS011;5281;48.878;9.394;2023-12-20T14:07:35;8.60;;;1.50;;
10467;SDS011;5281;48.878;9.394;2023-12-20T14:10:02;4.17;;;1.60;;
10467;SDS011;5281;48.878;9.394;2023-12-20T14:12:30;5.33;;;1.30;;
10467;SDS011;5281;48.878;9.394;2023-12-20T14:15:00;4.50;;;1.83;;
10467;SDS011;5281;48.878;9.394;2023-12-20T14:17:27;6.87;;;2.03;;
10467;SDS011;5281;48.878;9.394;2023-12-20T14:19:55;3.50;;;1.60;;
10467;SDS011;5281;48.878;9.394;2023-12-20T14:22:22;5.87;;;2.30;;
10467;SDS011;5281;48.878;9.394;2023-12-20T14:24:50;5.67;;;2.30;;
10467;SDS011;5281;48.878;9.394;2023-12-20T14:27:17;7.63;;;2.00;;
10467;SDS011;5281;48.878;9.394;2023-12-20T14:29:46;3.90;;;2.00;;
10467;SDS011;5281;48.878;9.394;2023-12-20T14:32:12;3.37;;;1.77;;
10467;SDS011;5281;48.878;9.394;2023-12-20T14:34:40;4.67;;;1.80;;
10467;SDS011;5281;48.878;9.394;2023-12-20T14:37:08;4.37;;;1.80;;
10467;SDS011;5281;48.878;9.394;2023-12-20T14:39:35;3.63;;;1.77;;
10467;SDS011;5281;48.878;9.394;2023-12-20T14:42:04;4.27;;;1.60;;
10467;SDS011;5281;48.878;9.394;2023-12-20T14:44:31;5.40;;;1.50;;
10467;SDS011;5281;48.878;9.394;2023-12-20T14:46:58;4.93;;;1.53;;
10467;SDS011;5281;48.878;9.394;2023-12-20T14:49:27;5.07;;;1.90;;
10467;SDS011;5281;48.878;9.394;2023-12-20T14:51:54;5.27;;;1.90;;
10467;SDS011;5281;48.878;9.394;2023-12-20T14:54:22;6.40;;;1.50;;
10467;SDS011;5281;48.878;9.394;2023-12-20T14:56:48;5.83;;;1.57;;
10467;SDS011;5281;48.878;9.394;2023-12-20T14:59:15;5.33;;;1.40;;
10467;SDS011;5281;48.878;9.394;2023-12-20T15:01:42;3.33;;;1.47;;
10467;SDS011;5281;48.878;9.394;2023-12-20T15:04:09;5.47;;;1.80;;
10467;SDS011;5281;48.878;9.394;2023-12-20T15:06:36;4.20;;;1.80;;